sensor_id;sensor_type;location;lat;lon;timestamp;temperature;humidity
8226;DHT22;4154;48.810;9.012;2022-08-18T00:01:43;20.30;94.90
8226;DHT22;4154;48.810;9.012;2022-08-18T00:04:14;20.30;94.90
8226;DHT22;4154;48.810;9.012;2022-08-18T00:09:08;20.30;95.00
8226;DHT22;4154;48.810;9.012;2022-08-18T00:11:40;20.30;95.10
8226;DHT22;4154;48.810;9.012;2022-08-18T00:14:13;20.30;95.10
8226;DHT22;4154;48.810;9.012;2022-08-18T00:24:04;20.20;99.90
8226;DHT22;4154;48.810;9.012;2022-08-18T00:46:18;20.10;95.30
8226;DHT22;4154;48.810;9.012;2022-08-18T00:51:46;20.10;95.40
8226;DHT22;4154;48.810;9.012;2022-08-18T00:54:21;20.10;99.90
8226;DHT22;4154;48.810;9.012;2022-08-18T00:56:52;20.10;95.50
8226;DHT22;4154;48.810;9.012;2022-08-18T00:59:28;20.10;99.90
8226;DHT22;4154;48.810;9.012;2022-08-18T01:02:01;20.10;95.40
8226;DHT22;4154;48.810;9.012;2022-08-18T01:04:54;20.10;99.90
8226;DHT22;4154;48.810;9.012;2022-08-18T01:07:32;20.00;99.90
8226;DHT22;4154;48.810;9.012;2022-08-18T01:10:03;20.10;99.90
8226;DHT22;4154;48.810;9.012;2022-08-18T01:12:31;20.00;95.50
8226;DHT22;4154;48.810;9.012;2022-08-18T01:17:25;20.00;95.60
8226;DHT22;4154;48.810;9.012;2022-08-18T01:20:14;20.00;95.60
8226;DHT22;4154;48.810;9.012;2022-08-18T01:23:14;19.50;99.90
8226;DHT22;4154;48.810;9.012;2022-08-18T01:25:43;19.90;95.50
8226;DHT22;4154;48.810;9.012;2022-08-18T01:28:29;19.90;99.90
8226;DHT22;4154;48.810;9.012;2022-08-18T01:31:00;20.00;99.90
8226;DHT22;4154;48.810;9.012;2022-08-18T01:33:30;19.90;95.70
8226;DHT22;4154;48.810;9.012;2022-08-18T01:36:09;19.90;99.90
8226;DHT22;4154;48.810;9.012;2022-08-18T01:43:33;19.90;95.70
8226;DHT22;4154;48.810;9.012;2022-08-18T01:48:29;19.90;95.80
8226;DHT22;4154;48.810;9.012;2022-08-18T01:51:01;19.90;95.80
8226;DHT22;4154;48.810;9.012;2022-08-18T01:53:29;19.90;99.90
8226;DHT22;4154;48.810;9.012;2022-08-18T01:58:22;19.80;95.50
8226;DHT22;4154;48.810;9.012;2022-08-18T02:00:56;19.90;99.90
8226;DHT22;4154;48.810;9.012;2022-08-18T02:03:31;19.80;95.60
8226;DHT22;4154;48.810;9.012;2022-08-18T02:06:02;19.80;95.60
8226;DHT22;4154;48.810;9.012;2022-08-18T02:10:56;19.80;99.90
8226;DHT22;4154;48.810;9.012;2022-08-18T02:13:25;19.40;99.90
8226;DHT22;4154;48.810;9.012;2022-08-18T02:15:51;19.80;99.90
8226;DHT22;4154;48.810;9.012;2022-08-18T02:18:20;19.80;95.80
8226;DHT22;4154;48.810;9.012;2022-08-18T02:23:14;19.80;99.90
8226;DHT22;4154;48.810;9.012;2022-08-18T02:25:43;19.70;99.90
8226;DHT22;4154;48.810;9.012;2022-08-18T02:28:09;19.80;99.90
8226;DHT22;4154;48.810;9.012;2022-08-18T02:30:35;19.70;99.90
8226;DHT22;4154;48.810;9.012;2022-08-18T02:33:06;19.70;96.10
8226;DHT22;4154;48.810;9.012;2022-08-18T02:38:01;19.60;96.20
8226;DHT22;4154;48.810;9.012;2022-08-18T02:42:58;19.90;99.90
8226;DHT22;4154;48.810;9.012;2022-08-18T02:50:23;19.70;99.90
8226;DHT22;4154;48.810;9.012;2022-08-18T02:52:49;19.60;99.90
8226;DHT22;4154;48.810;9.012;2022-08-18T02:55:15;20.00;99.90
8226;DHT22;4154;48.810;9.012;2022-08-18T02:57:43;19.60;96.70
8226;DHT22;4154;48.810;9.012;2022-08-18T03:00:12;19.50;96.70
8226;DHT22;4154;48.810;9.012;2022-08-18T03:02:45;19.50;99.90
8226;DHT22;4154;48.810;9.012;2022-08-18T03:07:38;19.40;99.90
8226;DHT22;4154;48.810;9.012;2022-08-18T03:10:04;19.50;99.90
8226;DHT22;4154;48.810;9.012;2022-08-18T03:12:31;19.50;99.90
8226;DHT22;4154;48.810;9.012;2022-08-18T03:19:52;19.50;99.90
8226;DHT22;4154;48.810;9.012;2022-08-18T03:22:18;19.50;99.90
8226;DHT22;4154;48.810;9.012;2022-08-18T03:32:05;19.60;99.90
8226;DHT22;4154;48.810;9.012;2022-08-18T03:36:59;19.40;99.90
8226;DHT22;4154;48.810;9.012;2022-08-18T03:41:53;19.10;99.90
8226;DHT22;4154;48.810;9.012;2022-08-18T03:44:21;19.50;97.10
8226;DHT22;4154;48.810;9.012;2022-08-18T03:46:49;19.50;97.10
8226;DHT22;4154;48.810;9.012;2022-08-18T03:49:17;19.40;97.10
8226;DHT22;4154;48.810;9.012;2022-08-18T03:51:45;19.40;97.30
8226;DHT22;4154;48.810;9.012;2022-08-18T03:54:13;19.40;99.90
8226;DHT22;4154;48.810;9.012;2022-08-18T03:56:42;19.40;97.00
8226;DHT22;4154;48.810;9.012;2022-08-18T03:59:21;19.40;97.00
8226;DHT22;4154;48.810;9.012;2022-08-18T04:01:50;19.40;97.00
8226;DHT22;4154;48.810;9.012;2022-08-18T04:04:22;19.50;99.90
8226;DHT22;4154;48.810;9.012;2022-08-18T04:06:56;19.50;99.90
8226;DHT22;4154;48.810;9.012;2022-08-18T04:09:27;19.50;97.00
8226;DHT22;4154;48.810;9.012;2022-08-18T04:11:54;19.50;97.00
8226;DHT22;4154;48.810;9.012;2022-08-18T04:14:24;20.00;99.90
8226;DHT22;4154;48.810;9.012;2022-08-18T04:16:57;19.50;99.90
8226;DHT22;4154;48.810;9.012;2022-08-18T04:21:51;19.40;99.90
8226;DHT22;4154;48.810;9.012;2022-08-18T04:26:46;19.40;99.80
8226;DHT22;4154;48.810;9.012;2022-08-18T04:29:14;19.50;97.00
8226;DHT22;4154;48.810;9.012;2022-08-18T04:31:43;19.50;97.10
8226;DHT22;4154;48.810;9.012;2022-08-18T04:34:09;19.50;99.90
8226;DHT22;4154;48.810;9.012;2022-08-18T04:36:36;19.50;99.90
8226;DHT22;4154;48.810;9.012;2022-08-18T04:39:08;19.50;97.00
8226;DHT22;4154;48.810;9.012;2022-08-18T04:41:36;19.50;97.00
8226;DHT22;4154;48.810;9.012;2022-08-18T04:44:04;19.70;99.90
8226;DHT22;4154;48.810;9.012;2022-08-18T04:46:42;19.20;99.90
8226;DHT22;4154;48.810;9.012;2022-08-18T04:49:21;19.50;99.90
8226;DHT22;4154;48.810;9.012;2022-08-18T04:54:38;19.50;96.80
8226;DHT22;4154;48.810;9.012;2022-08-18T04:57:13;19.50;99.90
8226;DHT22;4154;48.810;9.012;2022-08-18T04:59:46;19.70;99.90
8226;DHT22;4154;48.810;9.012;2022-08-18T05:02:14;19.50;97.00
8226;DHT22;4154;48.810;9.012;2022-08-18T05:04:42;19.50;97.10
8226;DHT22;4154;48.810;9.012;2022-08-18T05:07:13;19.60;97.10
8226;DHT22;4154;48.810;9.012;2022-08-18T05:09:41;19.60;97.10
8226;DHT22;4154;48.810;9.012;2022-08-18T05:12:09;19.60;99.90
8226;DHT22;4154;48.810;9.012;2022-08-18T05:14:42;19.50;97.10
8226;DHT22;4154;48.810;9.012;2022-08-18T05:22:03;19.60;99.90
8226;DHT22;4154;48.810;9.012;2022-08-18T05:31:53;19.60;99.90
8226;DHT22;4154;48.810;9.012;2022-08-18T05:34:20;19.60;97.00
8226;DHT22;4154;48.810;9.012;2022-08-18T05:39:23;19.60;99.90
8226;DHT22;4154;48.810;9.012;2022-08-18T05:42:05;19.50;99.90
8226;DHT22;4154;48.810;9.012;2022-08-18T05:44:39;19.80;99.90
8226;DHT22;4154;48.810;9.012;2022-08-18T05:50:02;19.80;97.20
8226;DHT22;4154;48.810;9.012;2022-08-18T05:52:58;19.80;99.90
8226;DHT22;4154;48.810;9.012;2022-08-18T05:55:57;19.80;99.90
8226;DHT22;4154;48.810;9.012;2022-08-18T05:58:49;19.80;97.40
8226;DHT22;4154;48.810;9.012;2022-08-18T06:01:33;19.80;99.90
8226;DHT22;4154;48.810;9.012;2022-08-18T06:04:33;19.90;99.90
8226;DHT22;4154;48.810;9.012;2022-08-18T06:07:16;19.80;99.90
8226;DHT22;4154;48.810;9.012;2022-08-18T06:09:50;19.90;97.20
8226;DHT22;4154;48.810;9.012;2022-08-18T06:12:30;20.20;99.90
8226;DHT22;4154;48.810;9.012;2022-08-18T06:15:20;19.90;97.50
8226;DHT22;4154;48.810;9.012;2022-08-18T06:26:12;20.00;97.40
8226;DHT22;4154;48.810;9.012;2022-08-18T06:31:24;20.10;97.40
8226;DHT22;4154;48.810;9.012;2022-08-18T06:34:20;20.10;97.30
8226;DHT22;4154;48.810;9.012;2022-08-18T06:37:15;20.10;99.90
8226;DHT22;4154;48.810;9.012;2022-08-18T06:42:23;20.30;97.20
8226;DHT22;4154;48.810;9.012;2022-08-18T06:45:09;20.30;97.00
8226;DHT22;4154;48.810;9.012;2022-08-18T06:47:52;20.40;99.90
8226;DHT22;4154;48.810;9.012;2022-08-18T06:50:51;20.40;96.70
8226;DHT22;4154;48.810;9.012;2022-08-18T06:54:04;20.50;96.50
8226;DHT22;4154;48.810;9.012;2022-08-18T06:59:18;21.00;99.90
8226;DHT22;4154;48.810;9.012;2022-08-18T07:01:44;20.50;95.80
8226;DHT22;4154;48.810;9.012;2022-08-18T07:04:35;20.60;95.70
8226;DHT22;4154;48.810;9.012;2022-08-18T07:07:19;20.70;99.90
8226;DHT22;4154;48.810;9.012;2022-08-18T07:12:23;20.60;95.50
8226;DHT22;4154;48.810;9.012;2022-08-18T07:15:03;20.60;95.50
8226;DHT22;4154;48.810;9.012;2022-08-18T07:17:35;20.40;99.90
8226;DHT22;4154;48.810;9.012;2022-08-18T07:23:00;20.70;95.60
8226;DHT22;4154;48.810;9.012;2022-08-18T07:25:43;20.70;99.90
8226;DHT22;4154;48.810;9.012;2022-08-18T07:28:36;20.70;99.90
8226;DHT22;4154;48.810;9.012;2022-08-18T07:36:56;20.70;95.70
8226;DHT22;4154;48.810;9.012;2022-08-18T07:39:32;20.70;95.70
8226;DHT22;4154;48.810;9.012;2022-08-18T07:44:54;20.80;99.90
8226;DHT22;4154;48.810;9.012;2022-08-18T07:52:36;20.30;99.90
8226;DHT22;4154;48.810;9.012;2022-08-18T07:55:15;21.00;99.90
8226;DHT22;4154;48.810;9.012;2022-08-18T08:12:08;20.70;99.90
8226;DHT22;4154;48.810;9.012;2022-08-18T08:14:50;20.70;96.50
8226;DHT22;4154;48.810;9.012;2022-08-18T08:33:48;20.80;99.90
8226;DHT22;4154;48.810;9.012;2022-08-18T08:36:31;20.60;99.90
8226;DHT22;4154;48.810;9.012;2022-08-18T08:39:08;20.80;96.80
8226;DHT22;4154;48.810;9.012;2022-08-18T08:42:00;20.90;99.90
8226;DHT22;4154;48.810;9.012;2022-08-18T08:44:39;20.90;96.80
8226;DHT22;4154;48.810;9.012;2022-08-18T08:50:17;21.00;99.90
8226;DHT22;4154;48.810;9.012;2022-08-18T08:53:07;21.00;99.90
8226;DHT22;4154;48.810;9.012;2022-08-18T08:55:48;20.90;99.90
8226;DHT22;4154;48.810;9.012;2022-08-18T09:01:17;20.80;99.90
8226;DHT22;4154;48.810;9.012;2022-08-18T09:21:59;21.70;96.30
8226;DHT22;4154;48.810;9.012;2022-08-18T09:24:44;21.80;96.20
8226;DHT22;4154;48.810;9.012;2022-08-18T09:27:33;21.60;99.90
8226;DHT22;4154;48.810;9.012;2022-08-18T09:30:07;21.90;95.80
8226;DHT22;4154;48.810;9.012;2022-08-18T09:33:18;21.80;99.90
8226;DHT22;4154;48.810;9.012;2022-08-18T09:42:43;22.30;99.90
8226;DHT22;4154;48.810;9.012;2022-08-18T09:48:24;22.20;99.90
8226;DHT22;4154;48.810;9.012;2022-08-18T09:57:23;22.20;99.90
8226;DHT22;4154;48.810;9.012;2022-08-18T10:02:06;22.00;99.90
8226;DHT22;4154;48.810;9.012;2022-08-18T10:04:39;22.50;99.90
8226;DHT22;4154;48.810;9.012;2022-08-18T10:07:33;22.30;95.50
8226;DHT22;4154;48.810;9.012;2022-08-18T10:16:02;22.10;95.70
8226;DHT22;4154;48.810;9.012;2022-08-18T10:24:21;22.50;95.60
8226;DHT22;4154;48.810;9.012;2022-08-18T10:34:56;22.60;99.90
8226;DHT22;4154;48.810;9.012;2022-08-18T10:37:37;22.70;95.20
8226;DHT22;4154;48.810;9.012;2022-08-18T10:42:56;22.80;99.90
8226;DHT22;4154;48.810;9.012;2022-08-18T10:45:37;23.00;99.90
8226;DHT22;4154;48.810;9.012;2022-08-18T10:51:19;22.70;99.90
8226;DHT22;4154;48.810;9.012;2022-08-18T10:56:52;22.80;99.90
8226;DHT22;4154;48.810;9.012;2022-08-18T10:59:33;22.80;99.90
8226;DHT22;4154;48.810;9.012;2022-08-18T11:05:08;22.90;99.90
8226;DHT22;4154;48.810;9.012;2022-08-18T11:10:18;23.00;99.90
8226;DHT22;4154;48.810;9.012;2022-08-18T11:18:26;23.30;99.90
8226;DHT22;4154;48.810;9.012;2022-08-18T11:29:18;23.40;95.80
8226;DHT22;4154;48.810;9.012;2022-08-18T11:31:58;23.50;93.30
8226;DHT22;4154;48.810;9.012;2022-08-18T11:34:35;22.50;92.30
8226;DHT22;4154;48.810;9.012;2022-08-18T11:37:08;23.40;99.90
8226;DHT22;4154;48.810;9.012;2022-08-18T11:39:53;23.50;99.90
8226;DHT22;4154;48.810;9.012;2022-08-18T11:42:30;23.20;99.90
8226;DHT22;4154;48.810;9.012;2022-08-18T11:45:16;23.40;99.90
8226;DHT22;4154;48.810;9.012;2022-08-18T11:48:00;23.70;92.50
8226;DHT22;4154;48.810;9.012;2022-08-18T11:58:42;24.20;93.50
8226;DHT22;4154;48.810;9.012;2022-08-18T12:06:37;23.70;91.60
8226;DHT22;4154;48.810;9.012;2022-08-18T12:09:22;23.70;97.10
8226;DHT22;4154;48.810;9.012;2022-08-18T12:12:14;23.90;93.00
8226;DHT22;4154;48.810;9.012;2022-08-18T12:17:39;24.10;98.90
8226;DHT22;4154;48.810;9.012;2022-08-18T12:20:08;24.10;91.10
8226;DHT22;4154;48.810;9.012;2022-08-18T12:22:35;24.30;90.90
8226;DHT22;4154;48.810;9.012;2022-08-18T12:25:06;24.60;98.50
8226;DHT22;4154;48.810;9.012;2022-08-18T12:30:02;24.20;97.50
8226;DHT22;4154;48.810;9.012;2022-08-18T12:32:31;24.40;97.60
8226;DHT22;4154;48.810;9.012;2022-08-18T12:37:27;24.50;97.70
8226;DHT22;4154;48.810;9.012;2022-08-18T12:42:22;24.20;97.70
8226;DHT22;4154;48.810;9.012;2022-08-18T12:44:49;24.90;97.10
8226;DHT22;4154;48.810;9.012;2022-08-18T12:47:19;24.80;90.00
8226;DHT22;4154;48.810;9.012;2022-08-18T12:49:48;24.80;96.90
8226;DHT22;4154;48.810;9.012;2022-08-18T12:52:15;25.00;88.70
8226;DHT22;4154;48.810;9.012;2022-08-18T12:57:23;25.10;96.70
8226;DHT22;4154;48.810;9.012;2022-08-18T12:59:50;25.10;95.50
8226;DHT22;4154;48.810;9.012;2022-08-18T13:02:17;25.10;95.80
8226;DHT22;4154;48.810;9.012;2022-08-18T13:04:43;25.30;95.90
8226;DHT22;4154;48.810;9.012;2022-08-18T13:07:11;25.40;96.00
8226;DHT22;4154;48.810;9.012;2022-08-18T13:09:38;25.10;96.20
8226;DHT22;4154;48.810;9.012;2022-08-18T13:12:05;25.40;95.90
8226;DHT22;4154;48.810;9.012;2022-08-18T13:14:31;25.30;96.00
8226;DHT22;4154;48.810;9.012;2022-08-18T13:21:51;25.20;96.20
8226;DHT22;4154;48.810;9.012;2022-08-18T13:26:45;25.50;84.80
8226;DHT22;4154;48.810;9.012;2022-08-18T13:29:13;25.50;85.40
8226;DHT22;4154;48.810;9.012;2022-08-18T13:31:41;25.30;95.00
8226;DHT22;4154;48.810;9.012;2022-08-18T13:34:08;25.80;95.40
8226;DHT22;4154;48.810;9.012;2022-08-18T13:36:33;25.40;95.20
8226;DHT22;4154;48.810;9.012;2022-08-18T13:39:17;25.60;95.20
8226;DHT22;4154;48.810;9.012;2022-08-18T13:41:46;25.20;95.10
8226;DHT22;4154;48.810;9.012;2022-08-18T13:44:14;25.60;84.60
8226;DHT22;4154;48.810;9.012;2022-08-18T13:49:21;25.80;95.30
8226;DHT22;4154;48.810;9.012;2022-08-18T13:51:49;25.80;94.80
8226;DHT22;4154;48.810;9.012;2022-08-18T13:54:23;25.40;95.40
8226;DHT22;4154;48.810;9.012;2022-08-18T13:56:50;25.20;95.00
8226;DHT22;4154;48.810;9.012;2022-08-18T13:59:18;25.90;96.20
8226;DHT22;4154;48.810;9.012;2022-08-18T14:01:46;25.60;94.90
8226;DHT22;4154;48.810;9.012;2022-08-18T14:04:14;25.20;94.90
8226;DHT22;4154;48.810;9.012;2022-08-18T14:06:40;25.50;94.70
8226;DHT22;4154;48.810;9.012;2022-08-18T14:09:07;25.50;94.90
8226;DHT22;4154;48.810;9.012;2022-08-18T14:11:34;25.60;94.80
8226;DHT22;4154;48.810;9.012;2022-08-18T14:14:02;25.50;84.50
8226;DHT22;4154;48.810;9.012;2022-08-18T14:16:30;25.50;95.20
8226;DHT22;4154;48.810;9.012;2022-08-18T14:18:57;25.40;95.20
8226;DHT22;4154;48.810;9.012;2022-08-18T14:21:49;25.60;95.20
8226;DHT22;4154;48.810;9.012;2022-08-18T14:24:35;25.80;94.70
8226;DHT22;4154;48.810;9.012;2022-08-18T14:27:32;25.60;94.90
8226;DHT22;4154;48.810;9.012;2022-08-18T14:30:11;25.60;94.70
8226;DHT22;4154;48.810;9.012;2022-08-18T14:32:40;25.40;94.50
8226;DHT22;4154;48.810;9.012;2022-08-18T14:35:08;25.70;84.20
8226;DHT22;4154;48.810;9.012;2022-08-18T14:40:02;25.60;93.90
8226;DHT22;4154;48.810;9.012;2022-08-18T14:44:55;25.80;94.00
8226;DHT22;4154;48.810;9.012;2022-08-18T15:02:09;25.80;82.10
8226;DHT22;4154;48.810;9.012;2022-08-18T15:04:37;25.70;82.30
8226;DHT22;4154;48.810;9.012;2022-08-18T15:07:03;25.80;94.00
8226;DHT22;4154;48.810;9.012;2022-08-18T15:11:57;25.70;82.10
8226;DHT22;4154;48.810;9.012;2022-08-18T15:14:25;25.70;83.90
8226;DHT22;4154;48.810;9.012;2022-08-18T15:16:56;25.20;94.60
8226;DHT22;4154;48.810;9.012;2022-08-18T15:19:23;25.50;84.60
8226;DHT22;4154;48.810;9.012;2022-08-18T15:21:49;24.90;95.00
8226;DHT22;4154;48.810;9.012;2022-08-18T15:29:48;25.80;95.00
8226;DHT22;4154;48.810;9.012;2022-08-18T15:34:40;25.40;95.00
8226;DHT22;4154;48.810;9.012;2022-08-18T15:37:08;25.50;94.50
8226;DHT22;4154;48.810;9.012;2022-08-18T15:39:34;25.60;95.00
8226;DHT22;4154;48.810;9.012;2022-08-18T15:41:59;25.10;94.50
8226;DHT22;4154;48.810;9.012;2022-08-18T15:47:00;25.20;94.30
8226;DHT22;4154;48.810;9.012;2022-08-18T15:49:29;25.20;94.50
8226;DHT22;4154;48.810;9.012;2022-08-18T15:51:56;25.30;94.30
8226;DHT22;4154;48.810;9.012;2022-08-18T15:54:22;25.40;94.50
8226;DHT22;4154;48.810;9.012;2022-08-18T15:56:48;25.00;94.70
8226;DHT22;4154;48.810;9.012;2022-08-18T16:04:07;25.10;83.60
8226;DHT22;4154;48.810;9.012;2022-08-18T16:06:34;25.10;84.10
8226;DHT22;4154;48.810;9.012;2022-08-18T16:09:02;25.00;83.50
8226;DHT22;4154;48.810;9.012;2022-08-18T16:11:28;24.90;92.10
8226;DHT22;4154;48.810;9.012;2022-08-18T16:13:55;25.00;93.50
8226;DHT22;4154;48.810;9.012;2022-08-18T16:18:50;24.90;84.90
8226;DHT22;4154;48.810;9.012;2022-08-18T16:21:19;24.90;95.50
8226;DHT22;4154;48.810;9.012;2022-08-18T16:23:49;24.80;96.00
8226;DHT22;4154;48.810;9.012;2022-08-18T16:26:18;24.70;95.90
8226;DHT22;4154;48.810;9.012;2022-08-18T16:28:47;24.60;87.40
8226;DHT22;4154;48.810;9.012;2022-08-18T16:31:19;24.60;96.40
8226;DHT22;4154;48.810;9.012;2022-08-18T16:36:21;24.60;96.80
8226;DHT22;4154;48.810;9.012;2022-08-18T16:38:52;24.40;88.60
8226;DHT22;4154;48.810;9.012;2022-08-18T16:41:20;24.30;88.70
8226;DHT22;4154;48.810;9.012;2022-08-18T16:43:47;24.40;97.00
8226;DHT22;4154;48.810;9.012;2022-08-18T16:46:19;24.20;97.00
8226;DHT22;4154;48.810;9.012;2022-08-18T16:51:17;24.20;89.50
8226;DHT22;4154;48.810;9.012;2022-08-18T16:53:46;24.00;97.40
8226;DHT22;4154;48.810;9.012;2022-08-18T16:56:20;24.10;97.40
8226;DHT22;4154;48.810;9.012;2022-08-18T16:58:47;24.10;97.40
8226;DHT22;4154;48.810;9.012;2022-08-18T17:04:20;24.00;97.50
8226;DHT22;4154;48.810;9.012;2022-08-18T17:06:48;23.90;89.80
8226;DHT22;4154;48.810;9.012;2022-08-18T17:11:43;23.90;90.30
8226;DHT22;4154;48.810;9.012;2022-08-18T17:14:09;23.80;95.60
8226;DHT22;4154;48.810;9.012;2022-08-18T17:16:36;23.80;97.90
8226;DHT22;4154;48.810;9.012;2022-08-18T17:19:03;23.80;90.40
8226;DHT22;4154;48.810;9.012;2022-08-18T17:21:31;23.70;98.10
8226;DHT22;4154;48.810;9.012;2022-08-18T17:23:59;23.70;90.50
8226;DHT22;4154;48.810;9.012;2022-08-18T17:32:13;23.60;90.70
8226;DHT22;4154;48.810;9.012;2022-08-18T17:34:46;23.60;90.80
8226;DHT22;4154;48.810;9.012;2022-08-18T17:37:18;23.60;98.80
8226;DHT22;4154;48.810;9.012;2022-08-18T17:39:53;23.60;99.00
8226;DHT22;4154;48.810;9.012;2022-08-18T17:42:30;23.50;91.20
8226;DHT22;4154;48.810;9.012;2022-08-18T17:44:59;23.40;99.40
8226;DHT22;4154;48.810;9.012;2022-08-18T17:53:33;23.20;99.20
8226;DHT22;4154;48.810;9.012;2022-08-18T17:58:53;23.20;99.50
8226;DHT22;4154;48.810;9.012;2022-08-18T18:01:23;23.30;91.50
8226;DHT22;4154;48.810;9.012;2022-08-18T18:03:50;23.50;99.40
8226;DHT22;4154;48.810;9.012;2022-08-18T18:06:25;23.20;91.60
8226;DHT22;4154;48.810;9.012;2022-08-18T18:09:51;22.80;99.20
8226;DHT22;4154;48.810;9.012;2022-08-18T18:11:56;23.20;99.50
8226;DHT22;4154;48.810;9.012;2022-08-18T18:17:31;23.30;99.90
8226;DHT22;4154;48.810;9.012;2022-08-18T18:23:15;23.10;99.70
8226;DHT22;4154;48.810;9.012;2022-08-18T18:25:43;22.90;99.50
8226;DHT22;4154;48.810;9.012;2022-08-18T18:28:29;23.20;99.70
8226;DHT22;4154;48.810;9.012;2022-08-18T18:31:25;22.90;91.60
8226;DHT22;4154;48.810;9.012;2022-08-18T18:34:01;22.90;99.90
8226;DHT22;4154;48.810;9.012;2022-08-18T18:39:08;22.90;91.90
8226;DHT22;4154;48.810;9.012;2022-08-18T18:44:09;22.90;99.60
8226;DHT22;4154;48.810;9.012;2022-08-18T18:49:30;22.80;99.40
8226;DHT22;4154;48.810;9.012;2022-08-18T18:55:16;22.90;91.50
8226;DHT22;4154;48.810;9.012;2022-08-18T18:58:17;22.80;91.20
8226;DHT22;4154;48.810;9.012;2022-08-18T19:00:50;22.70;91.00
8226;DHT22;4154;48.810;9.012;2022-08-18T19:03:35;22.80;99.10
8226;DHT22;4154;48.810;9.012;2022-08-18T19:06:17;22.80;99.20
8226;DHT22;4154;48.810;9.012;2022-08-18T19:08:56;22.70;91.00
8226;DHT22;4154;48.810;9.012;2022-08-18T19:14:53;22.70;91.20
8226;DHT22;4154;48.810;9.012;2022-08-18T19:20:19;22.10;98.80
8226;DHT22;4154;48.810;9.012;2022-08-18T19:23:00;22.40;98.80
8226;DHT22;4154;48.810;9.012;2022-08-18T19:25:41;22.70;99.10
8226;DHT22;4154;48.810;9.012;2022-08-18T19:28:37;22.80;99.10
8226;DHT22;4154;48.810;9.012;2022-08-18T19:31:30;22.90;99.00
8226;DHT22;4154;48.810;9.012;2022-08-18T19:34:05;22.10;98.80
8226;DHT22;4154;48.810;9.012;2022-08-18T19:43:06;22.20;98.60
8226;DHT22;4154;48.810;9.012;2022-08-18T19:45:45;22.50;98.70
8226;DHT22;4154;48.810;9.012;2022-08-18T19:48:54;22.40;90.70
8226;DHT22;4154;48.810;9.012;2022-08-18T19:51:31;22.30;98.70
8226;DHT22;4154;48.810;9.012;2022-08-18T19:54:25;22.50;98.70
8226;DHT22;4154;48.810;9.012;2022-08-18T20:06:33;22.30;90.50
8226;DHT22;4154;48.810;9.012;2022-08-18T20:14:59;22.30;90.50
8226;DHT22;4154;48.810;9.012;2022-08-18T20:22:34;22.40;98.60
8226;DHT22;4154;48.810;9.012;2022-08-18T20:25:32;22.30;98.50
8226;DHT22;4154;48.810;9.012;2022-08-18T20:31:03;21.90;98.30
8226;DHT22;4154;48.810;9.012;2022-08-18T20:33:35;22.20;90.40
8226;DHT22;4154;48.810;9.012;2022-08-18T20:36:28;22.20;98.60
8226;DHT22;4154;48.810;9.012;2022-08-18T20:42:51;22.10;90.60
8226;DHT22;4154;48.810;9.012;2022-08-18T20:48:20;22.10;98.90
8226;DHT22;4154;48.810;9.012;2022-08-18T20:51:09;22.10;90.90
8226;DHT22;4154;48.810;9.012;2022-08-18T20:53:49;22.30;99.40
8226;DHT22;4154;48.810;9.012;2022-08-18T20:56:43;22.10;99.20
8226;DHT22;4154;48.810;9.012;2022-08-18T20:59:20;22.00;99.10
8226;DHT22;4154;48.810;9.012;2022-08-18T21:02:04;22.30;99.50
8226;DHT22;4154;48.810;9.012;2022-08-18T21:04:54;22.00;91.20
8226;DHT22;4154;48.810;9.012;2022-08-18T21:10:00;22.00;91.20
8226;DHT22;4154;48.810;9.012;2022-08-18T21:12:32;22.00;91.20
8226;DHT22;4154;48.810;9.012;2022-08-18T21:15:07;22.10;99.40
8226;DHT22;4154;48.810;9.012;2022-08-18T21:20:06;22.00;91.20
8226;DHT22;4154;48.810;9.012;2022-08-18T21:22:39;21.90;99.20
8226;DHT22;4154;48.810;9.012;2022-08-18T21:25:11;22.00;91.40
8226;DHT22;4154;48.810;9.012;2022-08-18T21:27:41;22.00;91.00
8226;DHT22;4154;48.810;9.012;2022-08-18T21:30:15;21.90;98.90
8226;DHT22;4154;48.810;9.012;2022-08-18T21:35:31;21.90;98.80
8226;DHT22;4154;48.810;9.012;2022-08-18T21:42:58;22.00;99.00
8226;DHT22;4154;48.810;9.012;2022-08-18T21:45:25;21.90;90.70
8226;DHT22;4154;48.810;9.012;2022-08-18T21:47:55;21.80;90.60
8226;DHT22;4154;48.810;9.012;2022-08-18T21:50:25;21.80;90.60
8226;DHT22;4154;48.810;9.012;2022-08-18T21:52:59;21.80;90.50
8226;DHT22;4154;48.810;9.012;2022-08-18T21:55:36;21.90;98.90
8226;DHT22;4154;48.810;9.012;2022-08-18T22:00:41;21.70;90.40
8226;DHT22;4154;48.810;9.012;2022-08-18T22:03:23;21.70;90.60
8226;DHT22;4154;48.810;9.012;2022-08-18T22:15:38;21.70;90.90
8226;DHT22;4154;48.810;9.012;2022-08-18T22:18:30;21.80;98.50
8226;DHT22;4154;48.810;9.012;2022-08-18T22:23:43;21.70;90.50
8226;DHT22;4154;48.810;9.012;2022-08-18T22:26:35;21.70;90.50
8226;DHT22;4154;48.810;9.012;2022-08-18T22:31:45;21.70;90.60
8226;DHT22;4154;48.810;9.012;2022-08-18T22:36:50;21.70;90.70
8226;DHT22;4154;48.810;9.012;2022-08-18T22:39:34;21.60;90.70
8226;DHT22;4154;48.810;9.012;2022-08-18T22:47:05;21.60;90.90
8226;DHT22;4154;48.810;9.012;2022-08-18T22:52:10;21.60;99.20
8226;DHT22;4154;48.810;9.012;2022-08-18T22:59:34;21.50;99.20
8226;DHT22;4154;48.810;9.012;2022-08-18T23:04:26;21.50;91.10
8226;DHT22;4154;48.810;9.012;2022-08-18T23:06:53;21.50;91.10
8226;DHT22;4154;48.810;9.012;2022-08-18T23:09:23;21.50;91.10
8226;DHT22;4154;48.810;9.012;2022-08-18T23:11:53;21.50;91.20
8226;DHT22;4154;48.810;9.012;2022-08-18T23:19:15;21.50;91.20
8226;DHT22;4154;48.810;9.012;2022-08-18T23:21:43;21.40;99.20
8226;DHT22;4154;48.810;9.012;2022-08-18T23:24:12;21.50;99.10
8226;DHT22;4154;48.810;9.012;2022-08-18T23:31:36;21.40;91.10
8226;DHT22;4154;48.810;9.012;2022-08-18T23:36:31;21.40;91.20
8226;DHT22;4154;48.810;9.012;2022-08-18T23:46:21;21.30;91.10
8226;DHT22;4154;48.810;9.012;2022-08-18T23:48:51;21.30;91.20
8226;DHT22;4154;48.810;9.012;2022-08-18T23:51:31;21.40;99.50
8226;DHT22;4154;48.810;9.012;2022-08-18T23:54:08;21.30;91.30
8226;DHT22;4154;48.810;9.012;2022-08-18T23:59:05;21.40;91.30
